createdAt,value
2018-07-19T00:01:06.472Z,529.92
2018-07-19T00:03:08.866Z,545.40
2018-07-19T00:05:10.836Z,536.85
2018-07-19T00:07:12.828Z,561.12
2018-07-19T00:09:14.801Z,514.15
2018-07-19T00:11:16.779Z,517.08
2018-07-19T00:13:18.756Z,531.95
2018-07-19T00:15:20.713Z,504.45
2018-07-19T00:17:22.688Z,541.80
2018-07-19T00:19:24.661Z,528.60
2018-07-19T00:21:26.644Z,492.98
2018-07-19T00:23:28.599Z,514.90
2018-07-19T00:25:30.610Z,498.17
2018-07-19T00:27:32.588Z,490.08
2018-07-19T00:29:34.572Z,502.82
2018-07-19T00:31:36.549Z,491.70
2018-07-19T00:33:38.541Z,493.65
2018-07-19T00:35:40.500Z,494.45
2018-07-19T00:37:42.666Z,482.65
2018-07-19T00:39:44.650Z,505.50
2018-07-19T00:41:46.613Z,467.35
2018-07-19T00:43:49.206Z,490.77
2018-07-19T00:45:51.647Z,494.88
2018-07-19T00:47:53.602Z,488.48
2018-07-19T00:49:55.577Z,483.20
2018-07-19T00:51:57.558Z,497.40
2018-07-19T00:53:59.543Z,473.20
2018-07-19T00:56:01.511Z,479.00
2018-07-19T00:58:03.473Z,483.23
2018-07-19T01:00:05.466Z,465.65
2018-07-19T01:02:07.438Z,472.70
2018-07-19T01:04:09.421Z,482.77
2018-07-19T01:06:11.397Z,460.10
2018-07-19T01:08:13.367Z,453.68
2018-07-19T01:10:15.367Z,447.77
2018-07-19T01:12:18.115Z,449.92
2018-07-19T01:14:19.959Z,468.93
2018-07-19T01:16:21.937Z,453.08
2018-07-19T01:18:23.935Z,447.17
2018-07-19T01:20:25.881Z,447.87
2018-07-19T01:22:27.835Z,435.52
2018-07-19T01:24:29.839Z,441.35
2018-07-19T01:26:31.797Z,442.75
2018-07-19T01:28:33.765Z,437.08
2018-07-19T01:30:35.743Z,436.47
2018-07-19T01:32:37.711Z,437.95
2018-07-19T01:34:39.692Z,435.25
2018-07-19T01:36:41.948Z,424.45
2018-07-19T01:38:43.916Z,426.57
2018-07-19T01:40:46.018Z,427.00
2018-07-19T01:42:47.984Z,426.65
2018-07-19T01:44:50.371Z,416.70
2018-07-19T01:46:52.338Z,414.20
2018-07-19T01:48:54.306Z,430.70
2018-07-19T01:50:56.275Z,414.27
2018-07-19T01:52:58.248Z,420.48
2018-07-19T01:55:00.268Z,417.70
2018-07-19T01:57:02.223Z,410.10
2018-07-19T01:59:04.194Z,418.00
2018-07-19T02:01:06.165Z,416.30
2018-07-19T02:03:08.342Z,404.40
2018-07-19T02:05:10.654Z,409.75
2018-07-19T02:07:12.610Z,404.77
2018-07-19T02:09:14.786Z,401.60
2018-07-19T02:11:17.074Z,417.30
2018-07-19T02:13:19.041Z,405.73
2018-07-19T02:15:21.026Z,414.60
2018-07-19T02:17:23.030Z,406.07
2018-07-19T02:19:25.337Z,398.90
2018-07-19T02:21:27.319Z,398.93
2018-07-19T02:23:29.304Z,399.15
2018-07-19T02:25:31.276Z,410.63
2018-07-19T02:27:33.254Z,407.35
2018-07-19T02:29:35.505Z,398.27
2018-07-19T02:31:37.468Z,390.32
2018-07-19T02:33:39.444Z,394.62
2018-07-19T02:35:41.411Z,390.60
2018-07-19T02:37:43.400Z,376.82
2018-07-19T02:39:45.345Z,387.95
2018-07-19T02:41:47.694Z,373.35
2018-07-19T02:43:49.722Z,377.05
2018-07-19T02:45:51.635Z,391.60
2018-07-19T02:47:53.630Z,352.85
2018-07-19T02:49:55.999Z,379.35
2018-07-19T02:51:58.430Z,389.85
2018-07-19T02:54:00.492Z,367.45
2018-07-19T02:56:02.464Z,368.63
2018-07-19T02:58:04.434Z,361.60
2018-07-19T03:00:06.406Z,351.27
2018-07-19T03:02:08.417Z,351.10
2018-07-19T03:04:10.348Z,358.38
2018-07-19T03:06:12.387Z,357.30
2018-07-19T03:08:14.618Z,349.82
2018-07-19T03:10:16.600Z,346.25
2018-07-19T03:12:18.564Z,345.73
2018-07-19T03:14:20.676Z,342.05
2018-07-19T03:16:22.662Z,333.87
2018-07-19T03:18:24.628Z,334.18
2018-07-19T03:20:26.900Z,338.25
2018-07-19T03:22:28.877Z,326.77
2018-07-19T03:24:30.856Z,340.80
2018-07-19T03:26:32.828Z,341.63
2018-07-19T03:28:34.814Z,334.05
2018-07-19T03:30:36.774Z,334.67
2018-07-19T03:32:38.771Z,331.50
2018-07-19T03:34:40.737Z,325.00
2018-07-19T03:36:42.695Z,314.27
2018-07-19T03:38:44.682Z,319.52
2018-07-19T03:40:46.642Z,312.35
2018-07-19T03:42:48.623Z,324.90
2018-07-19T03:44:50.600Z,304.25
2018-07-19T03:46:52.568Z,310.63
2018-07-19T03:48:54.554Z,310.57
2018-07-19T03:50:56.528Z,314.72
2018-07-19T03:52:58.498Z,318.88
2018-07-19T03:55:00.475Z,303.00
2018-07-19T03:57:02.440Z,304.63
2018-07-19T03:59:04.420Z,292.02
2018-07-19T04:01:06.387Z,298.65
2018-07-19T04:03:08.388Z,295.95
2018-07-19T04:05:10.354Z,294.20
2018-07-19T04:07:12.340Z,305.57
2018-07-19T04:09:14.327Z,296.00
2018-07-19T04:11:16.298Z,286.00
2018-07-19T04:13:18.275Z,289.60
2018-07-19T04:15:20.247Z,282.40
2018-07-19T04:17:22.217Z,277.75
2018-07-19T04:19:24.187Z,283.75
2018-07-19T04:21:26.163Z,271.55
2018-07-19T04:23:28.139Z,280.30
2018-07-19T04:25:30.110Z,281.77
2018-07-19T04:27:32.097Z,286.80
2018-07-19T04:29:34.077Z,283.85
2018-07-19T04:31:36.061Z,266.60
2018-07-19T04:33:38.060Z,263.70
2018-07-19T04:35:40.025Z,270.40
2018-07-19T04:37:42.016Z,270.88
2018-07-19T04:39:43.990Z,265.25
2018-07-19T04:41:45.981Z,251.47
2018-07-19T04:43:47.950Z,256.75
2018-07-19T04:45:49.929Z,258.32
2018-07-19T04:47:51.915Z,257.23
2018-07-19T04:49:54.241Z,250.62
2018-07-19T04:51:56.211Z,265.23
2018-07-19T04:53:58.194Z,256.93
2018-07-19T04:56:00.171Z,252.15
2018-07-19T04:58:02.132Z,257.20
2018-07-19T05:00:04.119Z,249.67
2018-07-19T05:02:06.104Z,256.45
2018-07-19T05:04:08.077Z,247.02
2018-07-19T05:06:10.040Z,243.93
2018-07-19T05:08:12.024Z,249.12
2018-07-19T05:10:13.988Z,262.30
2018-07-19T05:12:15.955Z,239.72
2018-07-19T05:14:17.950Z,252.53
2018-07-19T05:16:19.928Z,421.33
2018-07-19T05:18:21.912Z,81.20
2018-07-19T05:20:23.874Z,36.77
2018-07-19T05:22:25.848Z,14.40
2018-07-19T05:24:27.812Z,10.20
2018-07-19T05:26:29.768Z,8.70
2018-07-19T05:28:31.733Z,9.83
2018-07-19T05:30:33.698Z,16.52
2018-07-19T05:32:35.941Z,446.12
2018-07-19T05:34:37.950Z,160.35
2018-07-19T05:36:39.912Z,41.73
2018-07-19T05:38:41.894Z,14.07
2018-07-19T05:40:43.850Z,9.40
2018-07-19T05:42:45.822Z,10.15
2018-07-19T05:44:47.813Z,151.75
2018-07-19T05:46:49.792Z,90.83
2018-07-19T05:48:51.764Z,53.15
2018-07-19T05:50:53.738Z,19.57
2018-07-19T05:52:55.726Z,15.95
2018-07-19T05:54:57.692Z,115.47
2018-07-19T05:57:00.404Z,50.43
2018-07-19T05:59:02.250Z,22.62
2018-07-19T06:01:04.214Z,10.65
2018-07-19T06:03:06.192Z,6.25
2018-07-19T06:05:08.151Z,14.55
2018-07-19T06:07:10.100Z,5.55
2018-07-19T06:09:12.077Z,25.08
2018-07-19T06:11:14.040Z,34.05
2018-07-19T06:13:16.022Z,24.05
2018-07-19T06:15:17.999Z,16.30
2018-07-19T06:17:19.965Z,11.25
2018-07-19T06:19:21.930Z,7.83
2018-07-19T06:21:23.892Z,7.53
2018-07-19T06:23:25.877Z,7.67
2018-07-19T06:25:27.838Z,92.60
2018-07-19T06:27:30.180Z,43.58
2018-07-19T06:29:32.042Z,59.35
2018-07-19T06:31:34.390Z,24.27
2018-07-19T06:33:36.323Z,16.75
2018-07-19T06:35:38.536Z,7.80
2018-07-19T06:37:40.497Z,9.08
2018-07-19T06:39:42.579Z,7.45
2018-07-19T06:41:44.538Z,10.28
2018-07-19T06:43:46.512Z,9.10
2018-07-19T06:45:48.477Z,71.75
2018-07-19T06:47:50.436Z,35.98
2018-07-19T06:49:52.430Z,15.65
2018-07-19T06:51:54.383Z,7.08
2018-07-19T06:53:56.341Z,5.92
2018-07-19T06:55:58.309Z,5.28
2018-07-19T06:58:00.277Z,14.45
2018-07-19T07:00:02.263Z,61.10
2018-07-19T07:02:04.232Z,24.87
2018-07-19T07:04:06.196Z,12.07
2018-07-19T07:06:08.157Z,7.83
2018-07-19T07:08:10.132Z,11.50
2018-07-19T07:10:12.084Z,9.05
2018-07-19T07:12:14.044Z,44.73
2018-07-19T07:14:16.024Z,20.72
2018-07-19T07:16:17.990Z,10.10
2018-07-19T07:18:19.952Z,6.60
2018-07-19T07:20:21.924Z,5.15
2018-07-19T07:22:23.900Z,42.08
2018-07-19T07:24:25.866Z,66.62
2018-07-19T07:26:27.844Z,58.23
2018-07-19T07:28:29.807Z,35.50
2018-07-19T07:30:31.778Z,35.60
2018-07-19T07:32:33.732Z,23.75
2018-07-19T07:34:35.705Z,22.90
2018-07-19T07:36:37.657Z,11.05
2018-07-19T07:38:39.628Z,7.50
2018-07-19T07:40:41.588Z,8.13
2018-07-19T07:42:43.559Z,6.28
2018-07-19T07:44:45.518Z,6.17
2018-07-19T07:46:47.878Z,10.58
2018-07-19T07:48:49.850Z,6.03
2018-07-19T07:50:51.797Z,8.23
2018-07-19T07:52:53.758Z,3.90
2018-07-19T07:54:56.131Z,4.30
2018-07-19T07:56:58.299Z,5.40
2018-07-19T07:59:00.279Z,4.17
2018-07-19T08:01:02.289Z,3.75
2018-07-19T08:03:04.233Z,2.72
2018-07-19T08:05:06.210Z,4.45
2018-07-19T08:07:08.137Z,3.47
2018-07-19T08:09:10.394Z,21.05
2018-07-19T08:11:12.443Z,15.23
2018-07-19T08:13:14.406Z,13.93
2018-07-19T08:15:16.373Z,22.48
2018-07-19T08:17:18.321Z,49.80
2018-07-19T08:19:20.292Z,53.30
2018-07-19T08:21:22.293Z,56.18
2018-07-19T08:23:24.241Z,51.15
2018-07-19T08:25:26.210Z,45.90
2018-07-19T08:27:28.167Z,45.03
2018-07-19T08:29:30.131Z,35.43
2018-07-19T08:31:32.093Z,30.55
2018-07-19T08:33:34.088Z,25.82
2018-07-19T08:35:36.360Z,13.95
2018-07-19T08:37:38.320Z,132.90
2018-07-19T08:39:40.292Z,85.97
2018-07-19T08:41:42.273Z,77.65
2018-07-19T08:43:44.252Z,40.17
2018-07-19T08:45:46.217Z,34.35
2018-07-19T08:47:48.187Z,38.10
2018-07-19T08:49:50.155Z,34.30
2018-07-19T08:51:52.116Z,35.98
2018-07-19T08:53:54.088Z,18.90
2018-07-19T08:55:56.053Z,11.18
2018-07-19T08:57:58.008Z,12.55
2018-07-19T08:59:59.999Z,33.33
2018-07-19T09:02:02.275Z,36.40
2018-07-19T09:04:04.667Z,24.52
2018-07-19T09:06:06.502Z,31.42
2018-07-19T09:08:08.457Z,18.17
2018-07-19T09:10:10.462Z,20.97
2018-07-19T09:12:12.432Z,21.27
2018-07-19T09:14:14.812Z,18.67
2018-07-19T09:16:16.777Z,24.98
2018-07-19T09:18:18.760Z,44.18
2018-07-19T09:20:21.023Z,48.42
2018-07-19T09:22:22.996Z,195.40
2018-07-19T09:24:24.973Z,144.32
2018-07-19T09:26:26.955Z,210.17
2018-07-19T09:28:28.939Z,119.00
2018-07-19T09:30:30.919Z,171.68
2018-07-19T09:32:32.928Z,243.75
2018-07-19T09:34:34.894Z,140.07
2018-07-19T09:36:36.871Z,160.52
2018-07-19T09:38:38.859Z,91.53
2018-07-19T09:40:40.804Z,104.63
2018-07-19T09:42:42.788Z,172.60
2018-07-19T09:44:44.758Z,136.45
2018-07-19T09:46:46.744Z,145.57
2018-07-19T09:48:49.583Z,179.18
2018-07-19T09:50:51.413Z,170.40
2018-07-19T09:52:53.394Z,141.43
2018-07-19T09:54:55.373Z,169.05
2018-07-19T09:56:57.359Z,204.93
2018-07-19T09:58:59.320Z,221.57
2018-07-19T10:01:01.307Z,209.90
2018-07-19T10:03:03.324Z,1974.10
2018-07-19T10:05:05.270Z,351.45
2018-07-19T10:07:07.257Z,218.73
2018-07-19T10:09:09.212Z,211.70
2018-07-19T10:11:11.184Z,851.80
2018-07-19T10:13:13.162Z,547.02
2018-07-19T10:15:15.121Z,340.12
2018-07-19T10:17:17.142Z,306.77
2018-07-19T10:19:19.102Z,221.97
2018-07-19T10:21:21.064Z,204.32
2018-07-19T10:23:23.056Z,240.90
2018-07-19T10:25:25.025Z,246.37
2018-07-19T10:27:27.016Z,173.87
2018-07-19T10:29:28.982Z,132.07
2018-07-19T10:31:30.955Z,453.50
2018-07-19T10:33:32.933Z,263.23
2018-07-19T10:35:34.914Z,251.05
2018-07-19T10:37:37.408Z,207.80
2018-07-19T10:39:39.328Z,187.70
2018-07-19T10:41:41.521Z,205.10
2018-07-19T10:43:43.476Z,200.28
2018-07-19T10:45:45.480Z,180.70
2018-07-19T10:47:47.934Z,160.82
2018-07-19T10:49:49.930Z,160.57
2018-07-19T10:51:51.943Z,138.55
2018-07-19T10:53:53.864Z,128.07
2018-07-19T10:55:55.867Z,125.15
2018-07-19T10:57:57.846Z,135.68
2018-07-19T10:59:59.827Z,134.25
2018-07-19T11:02:01.825Z,218.33
2018-07-19T11:04:03.815Z,228.35
2018-07-19T11:06:05.767Z,217.30
2018-07-19T11:08:07.728Z,196.87
2018-07-19T11:10:09.758Z,225.70
2018-07-19T11:12:11.691Z,176.12
2018-07-19T11:14:13.702Z,178.53
2018-07-19T11:16:15.674Z,158.65
2018-07-19T11:18:17.662Z,140.57
2018-07-19T11:20:19.628Z,141.62
2018-07-19T11:22:22.500Z,736.50
2018-07-19T11:24:24.480Z,423.62
2018-07-19T11:26:26.472Z,271.50
2018-07-19T11:28:28.491Z,222.05
2018-07-19T11:30:30.444Z,219.45
2018-07-19T11:32:32.433Z,210.82
2018-07-19T11:34:34.397Z,95.72
2018-07-19T11:36:36.370Z,132.03
2018-07-19T11:38:38.354Z,126.75
2018-07-19T11:40:40.332Z,124.02
2018-07-19T11:42:42.294Z,124.70
2018-07-19T11:44:44.270Z,90.10
2018-07-19T11:46:46.250Z,95.32
2018-07-19T11:48:48.224Z,734.75
2018-07-19T11:50:50.228Z,340.92
2018-07-19T11:52:52.199Z,150.93
2018-07-19T11:54:54.170Z,123.35
2018-07-19T11:56:56.163Z,121.67
2018-07-19T11:58:58.125Z,110.63
2018-07-19T12:01:00.094Z,129.90
2018-07-19T12:03:02.078Z,172.78
2018-07-19T12:05:04.046Z,1999.90
2018-07-19T12:07:06.028Z,371.80
2018-07-19T12:09:08.004Z,206.78
2018-07-19T12:11:09.990Z,142.35
2018-07-19T12:13:11.960Z,168.35
2018-07-19T12:15:13.949Z,121.82
2018-07-19T12:17:15.918Z,99.58
2018-07-19T12:19:17.904Z,109.83
2018-07-19T12:21:19.877Z,122.78
2018-07-19T12:23:21.856Z,412.18
2018-07-19T12:25:23.838Z,310.75
2018-07-19T12:27:25.819Z,178.07
2018-07-19T12:29:27.795Z,173.93
2018-07-19T12:31:29.767Z,138.35
2018-07-19T12:33:31.741Z,128.90
2018-07-19T12:35:33.731Z,114.77
2018-07-19T12:37:35.685Z,126.38
2018-07-19T12:39:37.693Z,110.08
2018-07-19T12:41:39.661Z,109.55
2018-07-19T12:43:41.632Z,143.28
2018-07-19T12:45:43.615Z,205.45
2018-07-19T12:47:45.588Z,262.08
2018-07-19T12:49:47.568Z,286.35
2018-07-19T12:51:49.554Z,262.63
2018-07-19T12:53:51.521Z,248.45
2018-07-19T12:55:53.501Z,229.47
2018-07-19T12:57:55.464Z,231.35
2018-07-19T12:59:57.469Z,237.42
2018-07-19T13:01:59.443Z,214.75
2018-07-19T13:04:01.427Z,218.90
2018-07-19T13:06:03.411Z,217.93
2018-07-19T13:08:05.370Z,224.35
2018-07-19T13:10:07.759Z,222.37
2018-07-19T13:12:09.663Z,238.03
2018-07-19T13:14:11.610Z,248.53
2018-07-19T13:16:13.589Z,239.93
2018-07-19T13:18:15.557Z,258.20
2018-07-19T13:20:17.509Z,240.30
2018-07-19T13:22:19.517Z,232.90
2018-07-19T13:24:21.514Z,226.15
2018-07-19T13:26:23.533Z,231.60
2018-07-19T13:28:25.492Z,248.50
2018-07-19T13:30:27.873Z,276.25
2018-07-19T13:32:29.752Z,281.30
2018-07-19T13:34:31.733Z,270.77
2018-07-19T13:36:33.780Z,320.17
2018-07-19T13:38:35.873Z,321.85
2018-07-19T13:40:37.896Z,351.85
2018-07-19T13:42:39.924Z,349.12
2018-07-19T13:44:41.847Z,344.15
2018-07-19T13:46:43.812Z,345.30
2018-07-19T13:48:45.790Z,361.37
2018-07-19T13:50:47.774Z,378.42
2018-07-19T13:52:49.769Z,341.50
2018-07-19T13:54:51.729Z,326.27
2018-07-19T13:56:53.694Z,315.10
2018-07-19T13:58:55.691Z,307.43
2018-07-19T14:00:57.668Z,273.57
2018-07-19T14:02:59.663Z,252.25
2018-07-19T14:05:01.631Z,241.40
2018-07-19T14:07:03.619Z,228.62
2018-07-19T14:09:05.586Z,206.25
2018-07-19T14:11:07.562Z,185.73
2018-07-19T14:13:09.568Z,185.70
2018-07-19T14:15:11.551Z,167.72
2018-07-19T14:17:13.524Z,154.63
2018-07-19T14:19:15.530Z,146.57
2018-07-19T14:21:17.505Z,128.72
2018-07-19T14:23:19.517Z,154.90
2018-07-19T14:25:21.531Z,145.28
2018-07-19T14:27:23.523Z,146.02
2018-07-19T14:29:25.518Z,155.45
2018-07-19T14:31:27.461Z,175.38
2018-07-19T14:33:29.436Z,180.55
2018-07-19T14:35:31.411Z,179.72
2018-07-19T14:37:33.382Z,181.70
2018-07-19T14:39:35.367Z,149.80
2018-07-19T14:41:37.340Z,83.92
2018-07-19T14:43:39.749Z,83.67
2018-07-19T14:45:41.749Z,105.52
2018-07-19T14:47:43.744Z,103.12
2018-07-19T14:49:45.709Z,104.03
2018-07-19T14:51:47.692Z,104.35
2018-07-19T14:53:49.674Z,92.80
2018-07-19T14:55:51.635Z,104.65
2018-07-19T14:57:53.644Z,104.38
2018-07-19T14:59:55.609Z,124.70
2018-07-19T15:01:57.600Z,136.82
2018-07-19T15:03:59.571Z,116.45
2018-07-19T15:06:01.580Z,142.57
2018-07-19T15:08:03.572Z,121.75
2018-07-19T15:10:05.549Z,116.53
2018-07-19T15:12:07.518Z,116.97
2018-07-19T15:14:09.493Z,100.00
2018-07-19T15:16:11.470Z,73.92
2018-07-19T15:18:13.434Z,92.70
2018-07-19T15:20:15.413Z,80.53
2018-07-19T15:22:17.360Z,123.72
2018-07-19T15:24:19.372Z,362.80
2018-07-19T15:26:21.355Z,214.85
2018-07-19T15:28:23.338Z,220.07
2018-07-19T15:30:25.345Z,61.33
2018-07-19T15:32:27.310Z,59.55
2018-07-19T15:34:29.348Z,91.32
2018-07-19T15:36:31.273Z,114.12
2018-07-19T15:38:33.289Z,155.43
2018-07-19T15:40:35.241Z,119.87
2018-07-19T15:42:37.215Z,138.52
2018-07-19T15:44:39.218Z,117.67
2018-07-19T15:46:41.161Z,141.07
2018-07-19T15:48:43.171Z,157.22
2018-07-19T15:50:45.151Z,216.15
2018-07-19T15:52:47.116Z,228.75
2018-07-19T15:54:49.096Z,192.95
2018-07-19T15:56:51.078Z,193.57
2018-07-19T15:58:53.068Z,141.05
2018-07-19T16:00:55.068Z,96.35
2018-07-19T16:02:57.041Z,108.95
2018-07-19T16:04:59.016Z,202.00
2018-07-19T16:07:00.974Z,164.10
2018-07-19T16:09:02.956Z,131.37
2018-07-19T16:11:04.955Z,113.88
2018-07-19T16:13:06.901Z,61.15
2018-07-19T16:15:08.894Z,39.08
2018-07-19T16:17:10.854Z,30.95
2018-07-19T16:19:12.847Z,20.20
2018-07-19T16:21:15.054Z,18.85
2018-07-19T16:23:17.008Z,16.52
2018-07-19T16:25:19.028Z,13.08
2018-07-19T16:27:20.984Z,13.38
2018-07-19T16:29:22.994Z,11.12
2018-07-19T16:31:24.949Z,10.60
2018-07-19T16:33:26.923Z,10.55
2018-07-19T16:35:28.886Z,11.10
2018-07-19T16:37:30.844Z,9.60
2018-07-19T16:39:32.803Z,11.25
2018-07-19T16:41:35.199Z,9.80
2018-07-19T16:43:37.133Z,9.53
2018-07-19T16:45:39.091Z,9.73
2018-07-19T16:47:41.066Z,9.65
2018-07-19T16:49:43.032Z,13.85
2018-07-19T16:51:45.006Z,114.95
2018-07-19T16:53:46.964Z,79.42
2018-07-19T16:55:48.950Z,171.10
2018-07-19T16:57:50.927Z,143.57
2018-07-19T16:59:52.906Z,110.60
2018-07-19T17:01:54.892Z,94.67
2018-07-19T17:03:56.859Z,83.55
2018-07-19T17:05:58.830Z,76.65
2018-07-19T17:08:00.811Z,72.22
2018-07-19T17:10:02.768Z,51.88
2018-07-19T17:12:04.758Z,45.17
2018-07-19T17:14:06.729Z,34.27
2018-07-19T17:16:08.702Z,32.48
2018-07-19T17:18:10.671Z,25.62
2018-07-19T17:20:12.638Z,33.73
2018-07-19T17:22:14.655Z,47.40
2018-07-19T17:24:16.626Z,79.55
2018-07-19T17:26:18.587Z,116.08
2018-07-19T17:28:20.581Z,34.13
2018-07-19T17:30:22.549Z,83.70
2018-07-19T17:32:24.532Z,59.08
2018-07-19T17:34:26.540Z,44.40
2018-07-19T17:36:28.485Z,511.20
2018-07-19T17:38:30.468Z,43.13
2018-07-19T17:40:32.445Z,63.38
2018-07-19T17:42:34.414Z,31.15
2018-07-19T17:44:36.379Z,18.67
2018-07-19T17:46:38.365Z,28.52
2018-07-19T17:48:40.329Z,18.10
2018-07-19T17:50:42.326Z,45.25
2018-07-19T17:52:44.282Z,16.25
2018-07-19T17:54:46.246Z,15.53
2018-07-19T17:56:48.203Z,20.50
2018-07-19T17:58:50.186Z,28.98
2018-07-19T18:00:52.155Z,20.70
2018-07-19T18:02:54.133Z,28.32
2018-07-19T18:04:56.107Z,29.23
2018-07-19T18:06:58.089Z,64.32
2018-07-19T18:09:00.053Z,150.15
2018-07-19T18:11:02.098Z,199.32
2018-07-19T18:13:04.032Z,206.93
2018-07-19T18:15:06.009Z,205.43
2018-07-19T18:17:07.994Z,190.57
2018-07-19T18:19:09.965Z,174.60
2018-07-19T18:21:11.941Z,213.80
2018-07-19T18:23:14.520Z,210.50
2018-07-19T18:25:16.493Z,210.05
2018-07-19T18:27:18.469Z,212.30
2018-07-19T18:29:20.434Z,211.75
2018-07-19T18:31:22.438Z,221.05
2018-07-19T18:33:24.543Z,253.88
2018-07-19T18:35:26.512Z,277.15
2018-07-19T18:37:28.501Z,324.40
2018-07-19T18:39:30.472Z,361.77
2018-07-19T18:41:32.439Z,355.52
2018-07-19T18:43:34.429Z,363.35
2018-07-19T18:45:36.792Z,344.95
2018-07-19T18:47:38.717Z,364.75
2018-07-19T18:49:41.117Z,393.70
2018-07-19T18:51:42.960Z,433.55
2018-07-19T18:53:44.936Z,480.83
2018-07-19T18:55:46.962Z,565.58
2018-07-19T18:57:49.289Z,502.90
2018-07-19T18:59:51.142Z,551.20
2018-07-19T19:01:53.134Z,477.75
2018-07-19T19:03:55.116Z,483.85
2018-07-19T19:05:57.100Z,514.37
2018-07-19T19:07:59.085Z,573.28
2018-07-19T19:10:01.076Z,471.53
2018-07-19T19:12:03.064Z,568.17
2018-07-19T19:14:05.036Z,571.30
2018-07-19T19:16:07.035Z,589.32
2018-07-19T19:18:09.018Z,477.10
2018-07-19T19:20:10.978Z,479.07
2018-07-19T19:22:12.960Z,523.28
2018-07-19T19:24:14.935Z,584.67
2018-07-19T19:26:16.944Z,627.45
2018-07-19T19:28:18.963Z,633.65
2018-07-19T19:30:20.887Z,623.90
2018-07-19T19:32:22.872Z,633.70
2018-07-19T19:34:24.855Z,624.50
2018-07-19T19:36:26.869Z,637.12
2018-07-19T19:38:28.825Z,668.67
2018-07-19T19:40:30.815Z,692.20
2018-07-19T19:42:32.782Z,696.05
2018-07-19T19:44:34.771Z,674.20
2018-07-19T19:46:36.735Z,657.98
2018-07-19T19:48:38.731Z,643.33
2018-07-19T19:50:40.723Z,652.97
2018-07-19T19:52:42.703Z,633.30
2018-07-19T19:54:44.697Z,644.08
2018-07-19T19:56:46.674Z,828.52
2018-07-19T19:58:48.648Z,651.35
2018-07-19T20:00:51.073Z,668.27
2018-07-19T20:02:52.938Z,720.88
2018-07-19T20:04:54.932Z,735.30
2018-07-19T20:06:56.942Z,717.67
2018-07-19T20:08:58.913Z,728.12
2018-07-19T20:11:00.905Z,729.05
2018-07-19T20:13:02.864Z,715.28
2018-07-19T20:15:04.832Z,717.50
2018-07-19T20:17:06.858Z,730.95
2018-07-19T20:19:08.814Z,716.52
2018-07-19T20:21:10.816Z,716.23
2018-07-19T20:23:12.791Z,713.12
2018-07-19T20:25:14.768Z,739.55
2018-07-19T20:27:16.759Z,756.95
2018-07-19T20:29:18.738Z,790.80
2018-07-19T20:31:20.733Z,791.02
2018-07-19T20:33:22.697Z,783.20
2018-07-19T20:35:24.671Z,763.83
2018-07-19T20:37:26.668Z,781.87
2018-07-19T20:39:28.641Z,765.30
2018-07-19T20:41:30.651Z,784.42
2018-07-19T20:43:32.604Z,767.63
2018-07-19T20:45:34.563Z,744.95
2018-07-19T20:47:36.559Z,901.45
2018-07-19T20:49:38.615Z,766.15
2018-07-19T20:51:40.582Z,789.90
2018-07-19T20:53:42.549Z,798.23
2018-07-19T20:55:44.541Z,820.52
2018-07-19T20:57:46.537Z,831.10
2018-07-19T20:59:48.503Z,856.08
2018-07-19T21:01:50.476Z,832.60
2018-07-19T21:03:52.451Z,815.58
2018-07-19T21:05:54.429Z,858.15
2018-07-19T21:07:56.410Z,816.58
2018-07-19T21:09:58.449Z,959.05
2018-07-19T21:12:00.411Z,823.42
2018-07-19T21:14:02.405Z,829.67
2018-07-19T21:16:04.368Z,886.73
2018-07-19T21:18:06.355Z,877.95
2018-07-19T21:20:08.314Z,884.42
2018-07-19T21:22:10.321Z,865.40
2018-07-19T21:24:12.319Z,880.27
2018-07-19T21:26:14.334Z,895.85
2018-07-19T21:28:16.248Z,814.67
2018-07-19T21:30:18.242Z,815.80
2018-07-19T21:32:20.226Z,853.12
2018-07-19T21:34:22.214Z,855.83
2018-07-19T21:36:24.197Z,860.75
2018-07-19T21:38:26.166Z,850.95
2018-07-19T21:40:28.158Z,855.00
2018-07-19T21:42:30.137Z,844.20
2018-07-19T21:44:32.129Z,830.38
2018-07-19T21:46:34.120Z,815.53
2018-07-19T21:48:36.079Z,832.13
2018-07-19T21:50:38.079Z,824.20
2018-07-19T21:52:40.059Z,835.80
2018-07-19T21:54:42.034Z,833.00
2018-07-19T21:56:44.016Z,858.55
2018-07-19T21:58:45.969Z,826.95
2018-07-19T22:00:47.955Z,825.00
2018-07-19T22:02:49.921Z,823.25
2018-07-19T22:04:51.906Z,828.37
2018-07-19T22:06:53.875Z,816.73
2018-07-19T22:08:55.856Z,817.68
2018-07-19T22:10:57.832Z,813.05
2018-07-19T22:12:59.820Z,816.60
2018-07-19T22:15:01.796Z,817.02
2018-07-19T22:17:03.816Z,809.02
2018-07-19T22:19:05.737Z,813.95
2018-07-19T22:21:07.734Z,812.60
2018-07-19T22:23:09.718Z,812.90
2018-07-19T22:25:11.692Z,790.23
2018-07-19T22:27:13.662Z,803.90
2018-07-19T22:29:15.632Z,805.63
2018-07-19T22:31:17.610Z,815.92
2018-07-19T22:33:19.597Z,781.20
2018-07-19T22:35:21.579Z,804.92
2018-07-19T22:37:23.552Z,783.83
2018-07-19T22:39:25.542Z,788.45
2018-07-19T22:41:27.518Z,792.20
2018-07-19T22:43:29.518Z,766.52
2018-07-19T22:45:31.637Z,794.23
2018-07-19T22:47:33.602Z,788.30
2018-07-19T22:49:35.589Z,786.02
2018-07-19T22:51:37.564Z,783.60
2018-07-19T22:53:39.560Z,759.40
2018-07-19T22:55:41.526Z,780.08
2018-07-19T22:57:43.477Z,777.58
2018-07-19T22:59:45.464Z,762.27
2018-07-19T23:01:47.441Z,774.65
2018-07-19T23:03:49.441Z,764.58
2018-07-19T23:05:51.417Z,770.33
2018-07-19T23:07:53.383Z,766.02
2018-07-19T23:09:55.352Z,760.70
2018-07-19T23:11:57.320Z,747.35
2018-07-19T23:13:59.291Z,767.42
2018-07-19T23:16:01.266Z,748.08
2018-07-19T23:18:03.236Z,734.85
2018-07-19T23:20:05.199Z,729.53
2018-07-19T23:22:07.179Z,750.02
2018-07-19T23:24:09.150Z,735.40
2018-07-19T23:26:11.146Z,733.75
2018-07-19T23:28:13.169Z,730.85
2018-07-19T23:30:15.131Z,732.92
2018-07-19T23:32:17.102Z,734.08
2018-07-19T23:34:19.057Z,716.25
2018-07-19T23:36:21.036Z,711.15
2018-07-19T23:38:23.021Z,714.35
2018-07-19T23:40:25.231Z,703.23
2018-07-19T23:42:27.212Z,706.40
2018-07-19T23:44:29.188Z,699.38
2018-07-19T23:46:31.161Z,695.33
2018-07-19T23:48:33.117Z,703.48
2018-07-19T23:50:35.088Z,711.80
2018-07-19T23:52:37.085Z,695.77
2018-07-19T23:54:39.044Z,687.98
2018-07-19T23:56:41.029Z,680.20
2018-07-19T23:58:43.002Z,689.63
